createdAt,value
2018-08-27T00:00:47.731Z,44.50
2018-08-27T00:01:47.763Z,44.79
2018-08-27T00:02:47.744Z,44.40
2018-08-27T00:03:47.832Z,44.40
2018-08-27T00:04:47.858Z,44.50
2018-08-27T00:05:47.834Z,44.50
2018-08-27T00:06:48.217Z,44.50
2018-08-27T00:07:47.890Z,44.70
2018-08-27T00:08:47.971Z,44.31
2018-08-27T00:09:48.003Z,44.70
2018-08-27T00:10:47.997Z,44.79
2018-08-27T00:11:48.026Z,44.60
2018-08-27T00:12:48.042Z,44.79
2018-08-27T00:13:48.418Z,44.50
2018-08-27T00:14:48.155Z,44.79
2018-08-27T00:15:48.133Z,44.60
2018-08-27T00:16:48.214Z,44.89
2018-08-27T00:17:48.188Z,44.79
2018-08-27T00:18:48.224Z,44.79
2018-08-27T00:19:48.300Z,44.70
2018-08-27T00:20:48.575Z,44.60
2018-08-27T00:21:48.354Z,44.31
2018-08-27T00:22:48.332Z,44.79
2018-08-27T00:23:48.375Z,44.79
2018-08-27T00:24:48.452Z,44.60
2018-08-27T00:25:48.443Z,44.79
2018-08-27T00:26:48.502Z,44.98
2018-08-27T00:27:48.793Z,45.08
2018-08-27T00:28:48.567Z,44.79
2018-08-27T00:29:48.541Z,44.70
2018-08-27T00:30:48.577Z,44.79
2018-08-27T00:31:48.688Z,44.98
2018-08-27T00:32:48.681Z,45.18
2018-08-27T00:33:48.661Z,45.08
2018-08-27T00:34:49.044Z,44.98
2018-08-27T00:35:48.723Z,44.70
2018-08-27T00:36:48.753Z,45.08
2018-08-27T00:37:48.835Z,44.79
2018-08-27T00:38:48.812Z,45.08
2018-08-27T00:39:48.840Z,45.08
2018-08-27T00:40:48.922Z,45.18
2018-08-27T00:41:49.248Z,44.98
2018-08-27T00:42:48.987Z,45.28
2018-08-27T00:44:48.985Z,44.98
2018-08-27T00:45:49.119Z,45.25
2018-08-27T00:46:49.052Z,45.54
2018-08-27T00:47:49.087Z,45.86
2018-08-27T00:48:49.410Z,45.76
2018-08-27T00:49:49.183Z,45.28
2018-08-27T00:50:49.213Z,45.74
2018-08-27T00:51:49.244Z,45.74
2018-08-27T00:53:49.255Z,45.83
2018-08-27T00:54:49.290Z,45.74
2018-08-27T00:55:49.616Z,46.22
2018-08-27T00:56:49.405Z,45.93
2018-08-27T00:57:49.367Z,46.22
2018-08-27T00:58:49.454Z,45.95
2018-08-27T00:59:49.429Z,46.05
2018-08-27T01:01:49.539Z,45.64
2018-08-27T01:03:49.597Z,45.76
2018-08-27T01:04:49.630Z,45.66
2018-08-27T01:05:49.617Z,46.05
2018-08-27T01:06:49.641Z,45.83
2018-08-27T01:07:49.665Z,45.74
2018-08-27T01:08:50.001Z,45.76
2018-08-27T01:09:49.778Z,45.76
2018-08-27T01:10:49.753Z,45.57
2018-08-27T01:11:49.784Z,45.86
2018-08-27T01:12:49.862Z,45.76
2018-08-27T01:13:49.840Z,45.47
2018-08-27T01:14:50.178Z,45.64
2018-08-27T01:15:49.957Z,45.83
2018-08-27T01:16:49.988Z,45.86
2018-08-27T01:17:49.970Z,45.76
2018-08-27T01:18:49.997Z,45.74
2018-08-27T01:19:50.023Z,45.83
2018-08-27T01:20:50.357Z,45.93
2018-08-27T01:21:50.130Z,46.03
2018-08-27T01:22:50.105Z,45.93
2018-08-27T01:23:50.143Z,45.93
2018-08-27T01:24:50.220Z,45.93
2018-08-27T01:25:50.251Z,46.03
2018-08-27T01:26:50.532Z,45.93
2018-08-27T01:27:50.260Z,46.05
2018-08-27T01:28:50.283Z,46.12
2018-08-27T01:29:50.361Z,45.83
2018-08-27T01:30:50.393Z,45.93
2018-08-27T01:31:50.377Z,45.93
2018-08-27T01:32:50.452Z,46.12
2018-08-27T01:33:50.485Z,46.12
2018-08-27T01:34:50.516Z,46.12
2018-08-27T01:35:50.492Z,45.95
2018-08-27T01:36:50.578Z,45.93
2018-08-27T01:37:50.548Z,46.03
2018-08-27T01:38:50.635Z,45.93
2018-08-27T01:39:50.607Z,45.93
2018-08-27T01:40:50.650Z,46.03
2018-08-27T01:41:50.722Z,46.03
2018-08-27T01:42:50.699Z,46.12
2018-08-27T01:43:50.778Z,46.22
2018-08-27T01:44:50.803Z,46.12
2018-08-27T01:45:51.134Z,46.12
2018-08-27T01:46:50.815Z,46.03
2018-08-27T01:47:50.842Z,46.32
2018-08-27T01:48:50.926Z,46.32
2018-08-27T01:49:50.954Z,46.12
2018-08-27T01:50:50.935Z,46.12
2018-08-27T01:51:50.969Z,46.22
2018-08-27T01:52:51.293Z,46.32
2018-08-27T01:53:51.067Z,46.61
2018-08-27T01:54:51.096Z,46.12
2018-08-27T01:55:51.087Z,46.42
2018-08-27T01:56:51.160Z,46.63
2018-08-27T01:57:51.190Z,46.70
2018-08-27T01:58:51.559Z,46.61
2018-08-27T01:59:51.247Z,46.70
2018-08-27T02:00:51.374Z,46.61
2018-08-27T02:01:51.303Z,46.90
2018-08-27T02:02:51.332Z,47.00
2018-08-27T02:03:51.311Z,46.90
2018-08-27T02:04:51.647Z,46.80
2018-08-27T02:05:51.428Z,46.80
2018-08-27T02:06:51.409Z,46.80
2018-08-27T02:07:51.479Z,46.70
2018-08-27T02:08:51.508Z,47.00
2018-08-27T02:09:51.542Z,47.28
2018-08-27T02:10:51.875Z,47.19
2018-08-27T02:11:51.554Z,46.90
2018-08-27T02:12:51.626Z,47.38
2018-08-27T02:13:51.604Z,47.58
2018-08-27T02:14:51.641Z,47.09
2018-08-27T02:15:51.724Z,47.28
2018-08-27T02:17:51.783Z,47.28
2018-08-27T02:18:52.065Z,46.97
2018-08-27T02:19:51.789Z,47.58
2018-08-27T02:20:51.877Z,47.65
2018-08-27T02:21:51.895Z,47.58
2018-08-27T02:22:51.872Z,47.38
2018-08-27T02:23:51.903Z,47.67
2018-08-27T02:24:52.249Z,47.55
2018-08-27T02:25:52.028Z,47.96
2018-08-27T02:26:51.998Z,47.84
2018-08-27T02:27:52.073Z,47.96
2018-08-27T02:28:52.105Z,47.77
2018-08-27T02:29:52.076Z,47.84
2018-08-27T02:30:52.159Z,47.84
2018-08-27T02:31:52.493Z,47.96
2018-08-27T02:32:52.216Z,47.94
2018-08-27T02:33:52.197Z,48.06
2018-08-27T02:34:52.259Z,47.65
2018-08-27T02:35:52.305Z,47.67
2018-08-27T02:36:52.347Z,47.65
2018-08-27T02:37:52.358Z,47.86
2018-08-27T02:38:52.638Z,47.45
2018-08-27T02:39:52.380Z,47.58
2018-08-27T02:40:52.451Z,47.58
2018-08-27T02:41:52.479Z,47.19
2018-08-27T02:42:52.455Z,47.28
2018-08-27T02:43:52.514Z,47.38
2018-08-27T02:44:52.562Z,47.48
2018-08-27T02:45:52.845Z,47.28
2018-08-27T02:46:52.620Z,47.09
2018-08-27T02:47:52.668Z,47.19
2018-08-27T02:48:52.678Z,47.28
2018-08-27T02:49:52.664Z,47.09
2018-08-27T02:50:52.689Z,47.28
2018-08-27T02:51:52.727Z,46.51
2018-08-27T02:52:53.098Z,47.58
2018-08-27T02:53:52.823Z,46.80
2018-08-27T02:54:52.860Z,47.58
2018-08-27T02:55:52.833Z,47.09
2018-08-27T02:56:52.923Z,47.38
2018-08-27T02:57:52.947Z,47.19
2018-08-27T02:58:52.920Z,47.28
2018-08-27T02:59:53.307Z,46.90
2018-08-27T03:00:53.038Z,46.90
2018-08-27T03:01:53.017Z,47.38
2018-08-27T03:02:53.037Z,47.09
2018-08-27T03:03:53.117Z,47.28
2018-08-27T03:04:53.099Z,47.09
2018-08-27T03:05:53.124Z,47.09
2018-08-27T03:06:53.456Z,47.19
2018-08-27T03:07:53.243Z,47.28
2018-08-27T03:08:53.272Z,47.28
2018-08-27T03:09:53.252Z,47.28
2018-08-27T03:10:53.321Z,47.19
2018-08-27T03:11:53.363Z,47.19
2018-08-27T03:12:53.380Z,47.09
2018-08-27T03:13:53.662Z,47.19
2018-08-27T03:14:53.441Z,47.38
2018-08-27T03:15:53.428Z,47.38
2018-08-27T03:16:53.506Z,47.00
2018-08-27T03:17:53.529Z,47.00
2018-08-27T03:18:53.511Z,46.90
2018-08-27T03:19:53.540Z,47.28
2018-08-27T03:20:53.863Z,47.00
2018-08-27T03:21:53.596Z,47.09
2018-08-27T03:22:53.683Z,47.38
2018-08-27T03:23:53.711Z,47.00
2018-08-27T03:24:53.755Z,47.09
2018-08-27T03:25:53.777Z,47.00
2018-08-27T03:26:53.800Z,47.28
2018-08-27T03:27:54.076Z,47.28
2018-08-27T03:28:53.853Z,47.00
2018-08-27T03:29:53.876Z,47.00
2018-08-27T03:30:53.864Z,47.00
2018-08-27T03:31:53.904Z,47.00
2018-08-27T03:33:53.991Z,47.38
2018-08-27T03:34:54.284Z,47.00
2018-08-27T03:35:53.997Z,47.09
2018-08-27T03:36:54.083Z,46.61
2018-08-27T03:37:54.113Z,47.67
2018-08-27T03:38:54.144Z,47.00
2018-08-27T03:39:54.126Z,47.19
2018-08-27T03:40:54.201Z,47.58
2018-08-27T03:41:54.231Z,47.67
2018-08-27T03:42:54.259Z,46.80
2018-08-27T03:43:54.245Z,47.58
2018-08-27T03:44:54.264Z,47.58
2018-08-27T03:45:54.350Z,47.67
2018-08-27T03:46:54.379Z,47.58
2018-08-27T03:47:54.706Z,47.00
2018-08-27T03:48:54.436Z,47.58
2018-08-27T03:49:54.411Z,47.00
2018-08-27T03:50:54.495Z,47.48
2018-08-27T03:51:54.468Z,47.09
2018-08-27T03:52:54.554Z,47.00
2018-08-27T03:53:54.830Z,47.67
2018-08-27T03:54:54.612Z,47.48
2018-08-27T03:55:54.588Z,47.00
2018-08-27T03:56:54.667Z,47.48
2018-08-27T03:57:54.692Z,47.00
2018-08-27T03:58:54.727Z,47.00
2018-08-27T03:59:55.054Z,47.58
2018-08-27T04:00:54.786Z,47.67
2018-08-27T04:01:55.070Z,47.58
2018-08-27T04:02:54.794Z,47.09
2018-08-27T04:03:54.869Z,47.09
2018-08-27T04:04:54.897Z,47.48
2018-08-27T04:05:54.876Z,47.00
2018-08-27T04:06:55.206Z,47.48
2018-08-27T04:07:55.004Z,46.90
2018-08-27T04:08:55.015Z,47.58
2018-08-27T04:09:55.042Z,47.28
2018-08-27T04:10:55.022Z,47.48
2018-08-27T04:11:55.061Z,47.00
2018-08-27T04:12:55.142Z,46.90
2018-08-27T04:13:55.415Z,47.19
2018-08-27T04:14:55.190Z,47.48
2018-08-27T04:15:55.166Z,47.09
2018-08-27T04:17:55.286Z,47.09
2018-08-27T04:18:55.258Z,47.19
2018-08-27T04:19:55.287Z,47.19
2018-08-27T04:20:55.618Z,47.00
2018-08-27T04:21:55.340Z,47.38
2018-08-27T04:22:55.421Z,47.19
2018-08-27T04:23:55.407Z,47.38
2018-08-27T04:24:55.497Z,47.38
2018-08-27T04:25:55.462Z,46.80
2018-08-27T04:26:55.498Z,47.28
2018-08-27T04:27:55.583Z,47.09
2018-08-27T04:28:55.717Z,47.28
2018-08-27T04:29:55.635Z,47.38
2018-08-27T04:30:55.614Z,47.38
2018-08-27T04:31:55.700Z,47.38
2018-08-27T04:32:55.718Z,47.48
2018-08-27T04:33:56.050Z,47.38
2018-08-27T04:34:55.743Z,47.48
2018-08-27T04:35:55.763Z,47.48
2018-08-27T04:36:55.840Z,47.38
2018-08-27T04:37:55.816Z,47.19
2018-08-27T04:38:55.893Z,47.28
2018-08-27T04:39:55.875Z,47.28
2018-08-27T04:40:56.198Z,47.38
2018-08-27T04:41:56.008Z,47.38
2018-08-27T04:42:55.959Z,47.19
2018-08-27T04:43:56.072Z,47.38
2018-08-27T04:44:56.138Z,47.50
2018-08-27T04:45:56.108Z,47.48
2018-08-27T04:46:56.104Z,47.38
2018-08-27T04:47:56.454Z,47.41
2018-08-27T04:48:56.136Z,47.38
2018-08-27T04:49:56.215Z,47.31
2018-08-27T04:50:56.188Z,47.48
2018-08-27T04:51:56.246Z,47.38
2018-08-27T04:52:56.306Z,47.41
2018-08-27T04:54:56.356Z,47.28
2018-08-27T04:55:56.638Z,47.28
2018-08-27T04:56:56.377Z,47.48
2018-08-27T04:57:56.419Z,47.58
2018-08-27T04:58:56.428Z,47.19
2018-08-27T04:59:56.504Z,47.38
2018-08-27T05:00:56.536Z,47.38
2018-08-27T05:01:56.516Z,47.58
2018-08-27T05:02:56.899Z,47.48
2018-08-27T05:03:56.570Z,47.38
2018-08-27T05:04:56.659Z,47.38
2018-08-27T05:05:56.684Z,47.19
2018-08-27T05:06:56.665Z,47.28
2018-08-27T05:07:56.692Z,47.28
2018-08-27T05:08:56.719Z,47.28
2018-08-27T05:09:57.046Z,47.00
2018-08-27T05:10:56.831Z,47.28
2018-08-27T05:11:56.812Z,47.19
2018-08-27T05:12:56.880Z,47.19
2018-08-27T05:13:56.946Z,47.00
2018-08-27T05:14:56.945Z,47.48
2018-08-27T05:15:56.922Z,47.48
2018-08-27T05:16:57.250Z,47.58
2018-08-27T05:17:56.987Z,47.48
2018-08-27T05:18:57.059Z,47.86
2018-08-27T05:19:57.083Z,47.86
2018-08-27T05:20:57.116Z,47.67
2018-08-27T05:21:57.092Z,47.48
2018-08-27T05:22:57.131Z,47.77
2018-08-27T05:23:57.200Z,47.58
2018-08-27T05:24:57.237Z,47.48
2018-08-27T05:25:57.269Z,47.86
2018-08-27T05:26:57.287Z,47.67
2018-08-27T05:27:57.275Z,47.48
2018-08-27T05:28:57.353Z,47.48
2018-08-27T05:29:57.629Z,47.86
2018-08-27T05:31:57.435Z,47.19
2018-08-27T05:32:57.467Z,47.48
2018-08-27T05:33:57.444Z,47.67
2018-08-27T05:34:57.470Z,47.67
2018-08-27T05:35:57.807Z,47.58
2018-08-27T05:36:57.541Z,47.60
2018-08-27T05:37:57.710Z,47.67
2018-08-27T05:38:57.596Z,47.69
2018-08-27T05:39:57.618Z,47.60
2018-08-27T05:40:57.699Z,47.69
2018-08-27T05:41:57.978Z,47.79
2018-08-27T05:42:57.771Z,47.50
2018-08-27T05:43:57.739Z,47.38
2018-08-27T05:44:57.772Z,47.89
2018-08-27T05:45:57.800Z,47.48
2018-08-27T05:46:57.876Z,47.02
2018-08-27T05:47:58.153Z,47.31
2018-08-27T05:48:57.887Z,47.28
2018-08-27T05:49:57.914Z,47.50
2018-08-27T05:50:57.945Z,47.28
2018-08-27T05:51:58.022Z,47.41
2018-08-27T05:53:58.057Z,47.31
2018-08-27T05:54:58.361Z,47.38
2018-08-27T05:55:58.140Z,47.28
2018-08-27T05:56:58.115Z,47.41
2018-08-27T05:57:58.143Z,47.31
2018-08-27T05:58:58.231Z,47.19
2018-08-27T05:59:58.208Z,47.79
2018-08-27T06:00:58.287Z,47.21
2018-08-27T06:01:58.640Z,47.31
2018-08-27T06:02:58.342Z,47.50
2018-08-27T06:03:58.329Z,47.21
2018-08-27T06:05:58.436Z,47.21
2018-08-27T06:06:58.418Z,47.31
2018-08-27T06:07:58.488Z,47.41
2018-08-27T06:08:58.823Z,47.41
2018-08-27T06:09:58.499Z,47.38
2018-08-27T06:10:58.612Z,47.41
2018-08-27T06:11:58.562Z,47.31
2018-08-27T06:12:58.639Z,47.21
2018-08-27T06:13:58.666Z,47.31
2018-08-27T06:14:58.643Z,47.02
2018-08-27T06:15:59.070Z,47.11
2018-08-27T06:16:58.762Z,47.02
2018-08-27T06:17:58.782Z,46.92
2018-08-27T06:18:58.809Z,47.11
2018-08-27T06:19:58.793Z,47.50
2018-08-27T06:20:58.868Z,47.11
2018-08-27T06:21:58.921Z,47.69
2018-08-27T06:22:58.933Z,47.21
2018-08-27T06:23:58.972Z,47.11
2018-08-27T06:24:59.006Z,47.02
2018-08-27T06:25:59.012Z,47.11
2018-08-27T06:26:58.995Z,47.02
2018-08-27T06:27:59.027Z,47.02
2018-08-27T06:28:59.353Z,47.41
2018-08-27T06:29:59.219Z,47.41
2018-08-27T06:30:59.165Z,47.02
2018-08-27T06:31:59.145Z,47.11
2018-08-27T06:32:59.226Z,47.02
2018-08-27T06:33:59.219Z,46.92
2018-08-27T06:34:59.282Z,47.02
2018-08-27T06:35:59.609Z,47.02
2018-08-27T06:36:59.343Z,47.31
2018-08-27T06:37:59.405Z,47.31
2018-08-27T06:38:59.404Z,47.31
2018-08-27T06:39:59.451Z,47.21
2018-08-27T06:40:59.460Z,47.21
2018-08-27T06:41:59.487Z,47.41
2018-08-27T06:42:59.461Z,47.31
2018-08-27T06:43:59.491Z,47.31
2018-08-27T06:44:59.575Z,47.21
2018-08-27T06:45:59.607Z,47.11
2018-08-27T06:46:59.581Z,47.11
2018-08-27T06:47:59.918Z,47.11
2018-08-27T06:48:59.695Z,47.11
2018-08-27T06:49:59.667Z,46.83
2018-08-27T06:50:59.747Z,46.92
2018-08-27T06:51:59.737Z,47.02
2018-08-27T06:52:59.816Z,46.63
2018-08-27T06:53:59.837Z,46.63
2018-08-27T06:54:59.813Z,46.83
2018-08-27T06:55:59.861Z,46.83
2018-08-27T06:56:59.929Z,46.73
2018-08-27T06:57:59.953Z,46.83
2018-08-27T06:58:59.940Z,46.73
2018-08-27T07:00:00.268Z,46.83
2018-08-27T07:01:00.052Z,46.73
2018-08-27T07:02:00.028Z,47.02
2018-08-27T07:03:00.119Z,46.63
2018-08-27T07:04:00.085Z,46.63
2018-08-27T07:05:00.163Z,46.92
2018-08-27T07:06:00.150Z,47.02
2018-08-27T07:07:00.479Z,47.02
2018-08-27T07:08:00.254Z,47.02
2018-08-27T07:09:00.285Z,47.02
2018-08-27T07:10:00.260Z,47.02
2018-08-27T07:11:00.285Z,46.73
2018-08-27T07:12:00.365Z,46.53
2018-08-27T07:13:00.401Z,46.83
2018-08-27T07:14:00.738Z,46.53
2018-08-27T07:15:00.411Z,46.73
2018-08-27T07:16:00.488Z,46.73
2018-08-27T07:18:00.540Z,46.73
2018-08-27T07:19:00.578Z,46.73
2018-08-27T07:20:00.606Z,46.63
2018-08-27T07:21:00.939Z,46.53
2018-08-27T07:22:00.664Z,46.63
2018-08-27T07:23:00.649Z,46.53
2018-08-27T07:24:00.753Z,46.63
2018-08-27T07:25:00.760Z,46.15
2018-08-27T07:26:00.793Z,46.53
2018-08-27T07:27:00.765Z,46.36
2018-08-27T07:28:01.097Z,46.15
2018-08-27T07:29:00.874Z,45.95
2018-08-27T07:30:00.904Z,46.25
2018-08-27T07:31:00.934Z,46.17
2018-08-27T07:32:00.905Z,46.26
2018-08-27T07:33:00.940Z,46.17
2018-08-27T07:34:01.022Z,46.26
2018-08-27T07:35:01.363Z,46.36
2018-08-27T07:36:01.053Z,46.36
2018-08-27T07:37:01.107Z,46.36
2018-08-27T07:38:01.097Z,45.98
2018-08-27T07:39:01.176Z,46.36
2018-08-27T07:40:01.204Z,46.36
2018-08-27T07:41:01.237Z,46.05
2018-08-27T07:42:01.571Z,46.36
2018-08-27T07:44:01.316Z,46.17
2018-08-27T07:45:01.348Z,45.98
2018-08-27T07:46:01.377Z,45.98
2018-08-27T07:47:01.355Z,45.98
2018-08-27T07:48:01.445Z,46.08
2018-08-27T07:49:01.710Z,45.98
2018-08-27T07:50:01.502Z,45.98
2018-08-27T07:51:01.539Z,46.08
2018-08-27T07:52:01.588Z,46.08
2018-08-27T07:53:01.589Z,46.26
2018-08-27T07:54:01.610Z,46.46
2018-08-27T07:55:01.642Z,46.17
2018-08-27T07:56:02.227Z,45.98
2018-08-27T07:57:01.647Z,45.98
2018-08-27T07:58:01.695Z,46.08
2018-08-27T07:59:01.709Z,45.98
2018-08-27T08:01:01.836Z,46.26
2018-08-27T08:02:02.149Z,46.08
2018-08-27T08:03:01.888Z,45.98
2018-08-27T08:04:01.953Z,45.98
2018-08-27T08:05:01.954Z,46.36
2018-08-27T08:06:02.009Z,46.56
2018-08-27T08:07:01.957Z,46.17
2018-08-27T08:08:01.989Z,46.36
2018-08-27T08:09:02.154Z,46.56
2018-08-27T08:10:02.034Z,46.26
2018-08-27T08:11:02.129Z,46.17
2018-08-27T08:12:02.099Z,45.98
2018-08-27T08:13:02.179Z,46.36
2018-08-27T08:14:02.209Z,46.08
2018-08-27T08:15:02.265Z,46.36
2018-08-27T08:16:02.225Z,46.77
2018-08-27T08:17:02.298Z,46.66
2018-08-27T08:18:02.502Z,46.39
2018-08-27T08:19:02.377Z,46.77
2018-08-27T08:20:02.410Z,46.19
2018-08-27T08:21:02.430Z,46.19
2018-08-27T08:22:02.443Z,46.29
2018-08-27T08:23:02.478Z,46.39
2018-08-27T08:24:02.467Z,46.19
2018-08-27T08:25:02.534Z,46.00
2018-08-27T08:26:02.881Z,46.39
2018-08-27T08:27:02.602Z,46.00
2018-08-27T08:28:02.633Z,46.29
2018-08-27T08:29:02.688Z,46.00
2018-08-27T08:30:02.690Z,46.09
2018-08-27T08:31:02.773Z,46.09
2018-08-27T08:32:02.800Z,45.81
2018-08-27T08:33:03.192Z,46.09
2018-08-27T08:34:02.804Z,46.00
2018-08-27T08:35:02.794Z,45.90
2018-08-27T08:36:02.836Z,46.00
2018-08-27T08:37:02.846Z,45.90
2018-08-27T08:38:02.877Z,45.90
2018-08-27T08:39:02.955Z,45.90
2018-08-27T08:40:03.042Z,45.81
2018-08-27T08:41:03.022Z,45.90
2018-08-27T08:42:03.002Z,46.00
2018-08-27T08:43:03.086Z,45.81
2018-08-27T08:44:03.100Z,45.90
2018-08-27T08:45:03.092Z,46.09
2018-08-27T08:46:03.147Z,45.71
2018-08-27T08:47:03.146Z,45.90
2018-08-27T08:48:03.178Z,46.00
2018-08-27T08:49:03.209Z,45.90
2018-08-27T08:50:03.288Z,45.71
2018-08-27T08:51:03.259Z,46.09
2018-08-27T08:52:03.348Z,45.71
2018-08-27T08:53:03.380Z,45.81
2018-08-27T08:54:03.367Z,45.81
2018-08-27T08:55:03.444Z,46.09
2018-08-27T08:56:03.466Z,45.90
2018-08-27T08:57:03.498Z,45.32
2018-08-27T08:58:03.533Z,45.32
2018-08-27T08:59:03.515Z,45.42
2018-08-27T09:00:03.590Z,45.34
2018-08-27T09:01:03.569Z,45.32
2018-08-27T09:02:03.594Z,45.44
2018-08-27T09:03:03.634Z,45.71
2018-08-27T09:04:04.018Z,46.02
2018-08-27T09:05:03.737Z,45.83
2018-08-27T09:06:03.768Z,45.92
2018-08-27T09:07:03.752Z,45.83
2018-08-27T09:08:03.873Z,45.54
2018-08-27T09:09:03.884Z,45.92
2018-08-27T09:10:03.886Z,45.83
2018-08-27T09:11:03.929Z,45.15
2018-08-27T09:12:03.949Z,45.34
2018-08-27T09:13:03.988Z,45.05
2018-08-27T09:14:03.955Z,45.15
2018-08-27T09:15:04.002Z,45.25
2018-08-27T09:16:04.066Z,45.25
2018-08-27T09:17:04.121Z,45.64
2018-08-27T09:18:04.126Z,45.25
2018-08-27T09:19:04.162Z,45.15
2018-08-27T09:20:04.200Z,45.05
2018-08-27T09:21:04.226Z,44.86
2018-08-27T09:22:04.206Z,44.76
2018-08-27T09:23:04.529Z,44.86
2018-08-27T09:24:04.285Z,44.67
2018-08-27T09:25:04.345Z,44.86
2018-08-27T09:26:04.374Z,44.57
2018-08-27T09:27:04.366Z,44.67
2018-08-27T09:28:04.445Z,44.67
2018-08-27T09:29:04.484Z,44.47
2018-08-27T09:30:04.447Z,44.37
2018-08-27T09:31:04.528Z,44.37
2018-08-27T09:32:04.505Z,44.47
2018-08-27T09:33:04.711Z,44.18
2018-08-27T09:34:04.617Z,44.37
2018-08-27T09:35:04.899Z,44.67
2018-08-27T09:36:04.631Z,44.47
2018-08-27T09:38:04.840Z,44.47
2018-08-27T09:39:04.781Z,44.57
2018-08-27T09:40:04.805Z,44.37
2018-08-27T09:41:05.084Z,44.57
2018-08-27T09:42:04.814Z,44.57
2018-08-27T09:43:04.918Z,44.37
2018-08-27T09:44:04.886Z,43.99
2018-08-27T09:45:04.955Z,44.09
2018-08-27T09:46:04.992Z,44.09
2018-08-27T09:47:05.023Z,43.99
2018-08-27T09:48:05.053Z,43.89
2018-08-27T09:49:05.080Z,43.99
2018-08-27T09:50:05.102Z,44.09
2018-08-27T09:51:05.089Z,43.89
2018-08-27T09:52:05.184Z,43.89
2018-08-27T09:53:05.212Z,43.99
2018-08-27T09:54:05.535Z,43.99
2018-08-27T09:55:05.216Z,44.37
2018-08-27T09:56:05.246Z,44.37
2018-08-27T09:57:05.322Z,43.99
2018-08-27T09:58:05.361Z,43.70
2018-08-27T09:59:05.421Z,44.10
2018-08-27T10:00:05.382Z,43.99
2018-08-27T10:01:05.754Z,43.89
2018-08-27T10:04:05.542Z,43.70
2018-08-27T10:05:05.613Z,43.82
2018-08-27T10:06:05.548Z,43.79
2018-08-27T10:07:05.645Z,43.91
2018-08-27T10:08:05.964Z,43.89
2018-08-27T10:09:05.752Z,43.79
2018-08-27T10:10:05.745Z,43.89
2018-08-27T10:11:05.703Z,44.01
2018-08-27T10:12:05.794Z,43.72
2018-08-27T10:13:05.824Z,43.91
2018-08-27T10:14:05.800Z,43.79
2018-08-27T10:15:06.230Z,43.89
2018-08-27T10:16:05.909Z,43.82
2018-08-27T10:17:05.943Z,43.82
2018-08-27T10:18:05.981Z,43.72
2018-08-27T10:19:05.963Z,43.62
2018-08-27T10:20:05.984Z,43.72
2018-08-27T10:21:06.070Z,43.82
2018-08-27T10:22:06.402Z,43.72
2018-08-27T10:23:06.143Z,43.70
2018-08-27T10:24:06.156Z,43.70
2018-08-27T10:25:06.192Z,43.91
2018-08-27T10:26:06.223Z,43.82
2018-08-27T10:27:06.198Z,43.91
2018-08-27T10:28:06.243Z,43.52
2018-08-27T10:29:06.611Z,43.72
2018-08-27T10:30:06.352Z,43.82
2018-08-27T10:31:06.325Z,43.72
2018-08-27T10:32:06.352Z,43.72
2018-08-27T10:33:06.444Z,43.72
2018-08-27T10:34:06.466Z,44.01
2018-08-27T10:35:06.507Z,43.52
2018-08-27T10:36:06.842Z,43.62
2018-08-27T10:37:06.616Z,43.43
2018-08-27T10:38:06.592Z,43.43
2018-08-27T10:39:06.637Z,43.52
2018-08-27T10:40:06.662Z,43.43
2018-08-27T10:41:06.691Z,43.43
2018-08-27T10:42:06.723Z,43.23
2018-08-27T10:43:07.051Z,43.52
2018-08-27T10:44:06.797Z,43.33
2018-08-27T10:45:06.809Z,43.43
2018-08-27T10:46:06.843Z,43.43
2018-08-27T10:47:06.873Z,43.52
2018-08-27T10:48:06.905Z,43.43
2018-08-27T10:49:07.238Z,43.23
2018-08-27T10:50:07.058Z,43.52
2018-08-27T10:51:06.952Z,43.43
2018-08-27T10:52:06.993Z,43.52
2018-08-27T10:53:07.069Z,43.62
2018-08-27T10:54:07.097Z,43.33
2018-08-27T10:55:07.378Z,43.33
2018-08-27T10:56:07.108Z,43.62
2018-08-27T10:57:07.197Z,43.62
2018-08-27T10:58:07.217Z,43.23
2018-08-27T10:59:07.257Z,43.13
2018-08-27T11:00:07.230Z,43.33
2018-08-27T11:01:07.307Z,43.23
2018-08-27T11:02:07.291Z,43.23
2018-08-27T11:03:07.382Z,43.33
2018-08-27T11:04:07.358Z,43.43
2018-08-27T11:05:07.480Z,43.13
2018-08-27T11:06:07.421Z,43.23
2018-08-27T11:07:07.743Z,43.33
2018-08-27T11:08:07.526Z,43.33
2018-08-27T11:09:07.563Z,43.13
2018-08-27T11:10:07.554Z,43.33
2018-08-27T11:11:07.619Z,43.13
2018-08-27T11:12:07.599Z,43.23
2018-08-27T11:13:07.632Z,43.23
2018-08-27T11:14:07.714Z,43.23
2018-08-27T11:15:07.752Z,43.13
2018-08-27T11:16:07.827Z,43.33
2018-08-27T11:17:07.809Z,43.33
2018-08-27T11:18:07.781Z,43.33
2018-08-27T11:19:07.822Z,43.23
2018-08-27T11:20:08.327Z,43.23
2018-08-27T11:21:07.933Z,43.13
2018-08-27T11:22:07.959Z,43.43
2018-08-27T11:23:07.997Z,43.13
2018-08-27T11:24:07.982Z,43.23
2018-08-27T11:25:08.053Z,43.33
2018-08-27T11:26:08.092Z,43.23
2018-08-27T11:27:08.375Z,43.23
2018-08-27T11:28:08.161Z,43.13
2018-08-27T11:29:08.182Z,43.23
2018-08-27T11:30:08.209Z,43.23
2018-08-27T11:31:08.242Z,43.33
2018-08-27T11:32:08.229Z,43.13
2018-08-27T11:33:08.251Z,43.13
2018-08-27T11:34:08.644Z,43.33
2018-08-27T11:35:08.367Z,43.45
2018-08-27T11:36:08.350Z,43.33
2018-08-27T11:37:08.426Z,43.33
2018-08-27T11:38:08.418Z,43.33
2018-08-27T11:39:08.494Z,43.33
2018-08-27T11:40:08.482Z,43.13
2018-08-27T11:41:08.868Z,43.52
2018-08-27T11:42:08.541Z,43.64
2018-08-27T11:43:08.566Z,43.64
2018-08-27T11:44:08.647Z,42.94
2018-08-27T11:45:08.678Z,42.86
2018-08-27T11:46:08.734Z,43.06
2018-08-27T11:47:09.065Z,42.96
2018-08-27T11:48:08.736Z,42.94
2018-08-27T11:49:08.778Z,43.06
2018-08-27T11:50:08.888Z,43.16
2018-08-27T11:51:08.908Z,43.16
2018-08-27T11:52:08.849Z,43.16
2018-08-27T11:53:09.233Z,43.26
2018-08-27T11:54:08.940Z,43.16
2018-08-27T11:55:09.078Z,43.16
2018-08-27T11:56:08.976Z,43.16
2018-08-27T11:57:09.075Z,43.16
2018-08-27T11:58:09.043Z,43.26
2018-08-27T11:59:09.119Z,43.16
2018-08-27T12:00:09.161Z,43.16
2018-08-27T12:01:09.275Z,43.06
2018-08-27T12:02:09.323Z,43.16
2018-08-27T12:03:09.248Z,43.06
2018-08-27T12:04:09.244Z,43.16
2018-08-27T12:05:09.609Z,43.06
2018-08-27T12:06:09.338Z,42.86
2018-08-27T12:07:09.371Z,43.45
2018-08-27T12:08:09.404Z,43.26
2018-08-27T12:09:09.396Z,42.86
2018-08-27T12:10:09.473Z,42.77
2018-08-27T12:11:09.465Z,42.67
2018-08-27T12:12:09.842Z,42.96
2018-08-27T12:13:09.589Z,42.77
2018-08-27T12:14:09.576Z,42.77
2018-08-27T12:15:09.630Z,42.96
2018-08-27T12:16:09.608Z,42.57
2018-08-27T12:17:09.694Z,42.57
2018-08-27T12:18:09.673Z,42.57
2018-08-27T12:19:09.703Z,42.86
2018-08-27T12:20:09.776Z,42.57
2018-08-27T12:21:09.829Z,42.67
2018-08-27T12:22:09.813Z,42.77
2018-08-27T12:23:09.880Z,42.48
2018-08-27T12:24:09.915Z,42.77
2018-08-27T12:25:10.190Z,42.77
2018-08-27T12:26:09.975Z,42.48
2018-08-27T12:27:09.951Z,42.67
2018-08-27T12:28:09.989Z,42.57
2018-08-27T12:29:10.088Z,42.48
2018-08-27T12:30:10.051Z,42.77
2018-08-27T12:31:10.140Z,42.57
2018-08-27T12:32:10.475Z,42.86
2018-08-27T12:33:10.202Z,42.48
2018-08-27T12:34:10.174Z,42.57
2018-08-27T12:35:10.258Z,42.67
2018-08-27T12:36:10.311Z,42.29
2018-08-27T12:37:10.313Z,42.38
2018-08-27T12:38:10.350Z,42.29
2018-08-27T12:39:10.350Z,42.09
2018-08-27T12:40:10.364Z,42.09
2018-08-27T12:41:10.581Z,42.19
2018-08-27T12:42:10.475Z,42.19
2018-08-27T12:43:10.512Z,42.29
2018-08-27T12:44:10.820Z,42.29
2018-08-27T12:45:10.587Z,42.29
2018-08-27T12:46:10.621Z,42.29
2018-08-27T12:47:10.585Z,42.38
2018-08-27T12:48:10.623Z,42.29
2018-08-27T12:49:10.697Z,42.19
2018-08-27T12:50:10.983Z,42.29
2018-08-27T12:51:10.777Z,42.38
2018-08-27T12:52:10.809Z,42.38
2018-08-27T12:53:10.842Z,42.29
2018-08-27T12:54:10.868Z,42.48
2018-08-27T12:55:10.896Z,42.38
2018-08-27T12:56:10.920Z,42.48
2018-08-27T12:57:11.261Z,42.19
2018-08-27T12:58:10.983Z,41.99
2018-08-27T12:59:10.967Z,41.99
2018-08-27T13:00:10.998Z,41.99
2018-08-27T13:01:11.050Z,42.19
2018-08-27T13:02:11.122Z,42.19
2018-08-27T13:03:11.138Z,42.19
2018-08-27T13:04:11.445Z,42.09
2018-08-27T13:05:11.232Z,42.11
2018-08-27T13:06:11.187Z,42.19
2018-08-27T13:07:11.287Z,42.21
2018-08-27T13:08:11.321Z,42.21
2018-08-27T13:09:11.351Z,42.30
2018-08-27T13:10:11.368Z,42.30